sensor_id;sensor_type;location;lat;lon;timestamp;P1;durP1;ratioP1;P2;durP2;ratioP2
7707;SDS011;3896;48.758;8.888;2024-01-27T00:00:22;1.37;;;1.27;;
7707;SDS011;3896;48.758;8.888;2024-01-27T00:02:48;3.27;;;2.27;;
7707;SDS011;3896;48.758;8.888;2024-01-27T00:05:13;3.07;;;1.40;;
7707;SDS011;3896;48.758;8.888;2024-01-27T00:07:39;2.07;;;1.70;;
7707;SDS011;3896;48.758;8.888;2024-01-27T00:10:05;4.57;;;1.63;;
7707;SDS011;3896;48.758;8.888;2024-01-27T00:12:31;2.00;;;1.50;;
7707;SDS011;3896;48.758;8.888;2024-01-27T00:14:57;4.10;;;1.77;;
7707;SDS011;3896;48.758;8.888;2024-01-27T00:17:22;1.93;;;1.60;;
7707;SDS011;3896;48.758;8.888;2024-01-27T00:19:50;1.73;;;1.63;;
7707;SDS011;3896;48.758;8.888;2024-01-27T00:22:16;1.73;;;1.57;;
7707;SDS011;3896;48.758;8.888;2024-01-27T00:24:43;3.57;;;1.80;;
7707;SDS011;3896;48.758;8.888;2024-01-27T00:27:08;1.63;;;1.53;;
7707;SDS011;3896;48.758;8.888;2024-01-27T00:29:34;4.73;;;2.10;;
7707;SDS011;3896;48.758;8.888;2024-01-27T00:31:59;2.50;;;1.70;;
7707;SDS011;3896;48.758;8.888;2024-01-27T00:34:25;2.07;;;1.93;;
7707;SDS011;3896;48.758;8.888;2024-01-27T00:36:51;1.83;;;1.70;;
7707;SDS011;3896;48.758;8.888;2024-01-27T00:39:17;1.63;;;1.37;;
7707;SDS011;3896;48.758;8.888;2024-01-27T00:41:43;4.50;;;1.67;;
7707;SDS011;3896;48.758;8.888;2024-01-27T00:44:09;3.67;;;1.93;;
7707;SDS011;3896;48.758;8.888;2024-01-27T00:46:36;2.40;;;1.90;;
7707;SDS011;3896;48.758;8.888;2024-01-27T00:49:02;1.67;;;1.20;;
7707;SDS011;3896;48.758;8.888;2024-01-27T00:51:28;2.00;;;1.80;;
7707;SDS011;3896;48.758;8.888;2024-01-27T00:53:54;2.60;;;1.57;;
7707;SDS011;3896;48.758;8.888;2024-01-27T00:56:19;6.70;;;1.57;;
7707;SDS011;3896;48.758;8.888;2024-01-27T00:58:45;1.77;;;1.50;;
7707;SDS011;3896;48.758;8.888;2024-01-27T01:01:10;1.40;;;1.30;;
7707;SDS011;3896;48.758;8.888;2024-01-27T01:03:36;2.13;;;1.90;;
7707;SDS011;3896;48.758;8.888;2024-01-27T01:06:02;1.30;;;1.20;;
7707;SDS011;3896;48.758;8.888;2024-01-27T01:08:28;1.67;;;1.50;;
7707;SDS011;3896;48.758;8.888;2024-01-27T01:10:53;1.83;;;1.20;;
7707;SDS011;3896;48.758;8.888;2024-01-27T01:13:19;5.60;;;2.03;;
7707;SDS011;3896;48.758;8.888;2024-01-27T01:15:45;1.90;;;1.10;;
7707;SDS011;3896;48.758;8.888;2024-01-27T01:18:10;3.27;;;2.00;;
7707;SDS011;3896;48.758;8.888;2024-01-27T01:20:36;1.43;;;1.30;;
7707;SDS011;3896;48.758;8.888;2024-01-27T01:23:01;5.33;;;1.77;;
7707;SDS011;3896;48.758;8.888;2024-01-27T01:25:27;4.63;;;1.60;;
7707;SDS011;3896;48.758;8.888;2024-01-27T01:27:53;3.37;;;1.70;;
7707;SDS011;3896;48.758;8.888;2024-01-27T01:30:19;5.23;;;1.97;;
7707;SDS011;3896;48.758;8.888;2024-01-27T01:32:44;3.70;;;1.60;;
7707;SDS011;3896;48.758;8.888;2024-01-27T01:35:10;1.63;;;1.30;;
7707;SDS011;3896;48.758;8.888;2024-01-27T01:37:36;3.97;;;1.60;;
7707;SDS011;3896;48.758;8.888;2024-01-27T01:40:01;2.33;;;1.53;;
7707;SDS011;3896;48.758;8.888;2024-01-27T01:42:28;4.47;;;1.97;;
7707;SDS011;3896;48.758;8.888;2024-01-27T01:44:54;1.90;;;1.40;;
7707;SDS011;3896;48.758;8.888;2024-01-27T01:47:21;1.83;;;1.67;;
7707;SDS011;3896;48.758;8.888;2024-01-27T01:49:49;5.60;;;2.10;;
7707;SDS011;3896;48.758;8.888;2024-01-27T01:52:15;1.67;;;1.50;;
7707;SDS011;3896;48.758;8.888;2024-01-27T01:54:49;5.50;;;1.43;;
7707;SDS011;3896;48.758;8.888;2024-01-27T01:57:15;1.33;;;1.33;;
7707;SDS011;3896;48.758;8.888;2024-01-27T01:59:41;2.07;;;1.37;;
7707;SDS011;3896;48.758;8.888;2024-01-27T02:02:09;3.27;;;1.87;;
7707;SDS011;3896;48.758;8.888;2024-01-27T02:04:45;2.13;;;1.63;;
7707;SDS011;3896;48.758;8.888;2024-01-27T02:07:11;4.17;;;1.97;;
7707;SDS011;3896;48.758;8.888;2024-01-27T02:09:36;2.03;;;1.50;;
7707;SDS011;3896;48.758;8.888;2024-01-27T02:12:03;2.00;;;1.57;;
7707;SDS011;3896;48.758;8.888;2024-01-27T02:14:29;2.83;;;1.43;;
7707;SDS011;3896;48.758;8.888;2024-01-27T02:16:55;2.00;;;1.77;;
7707;SDS011;3896;48.758;8.888;2024-01-27T02:19:21;4.67;;;1.77;;
7707;SDS011;3896;48.758;8.888;2024-01-27T02:21:47;4.20;;;1.60;;
7707;SDS011;3896;48.758;8.888;2024-01-27T02:24:12;2.37;;;1.63;;
7707;SDS011;3896;48.758;8.888;2024-01-27T02:26:38;1.50;;;1.40;;
7707;SDS011;3896;48.758;8.888;2024-01-27T02:29:03;1.93;;;1.80;;
7707;SDS011;3896;48.758;8.888;2024-01-27T02:31:29;3.80;;;1.73;;
7707;SDS011;3896;48.758;8.888;2024-01-27T02:33:55;3.10;;;1.80;;
7707;SDS011;3896;48.758;8.888;2024-01-27T02:36:20;2.80;;;1.90;;
7707;SDS011;3896;48.758;8.888;2024-01-27T02:38:46;6.30;;;1.60;;
7707;SDS011;3896;48.758;8.888;2024-01-27T02:41:11;1.90;;;1.30;;
7707;SDS011;3896;48.758;8.888;2024-01-27T02:59:24;3.40;;;1.80;;
7707;SDS011;3896;48.758;8.888;2024-01-27T03:01:49;4.43;;;2.13;;
7707;SDS011;3896;48.758;8.888;2024-01-27T03:04:15;2.90;;;1.73;;
7707;SDS011;3896;48.758;8.888;2024-01-27T03:06:40;2.27;;;1.73;;
7707;SDS011;3896;48.758;8.888;2024-01-27T03:09:06;2.33;;;1.77;;
7707;SDS011;3896;48.758;8.888;2024-01-27T03:11:32;2.20;;;1.53;;
7707;SDS011;3896;48.758;8.888;2024-01-27T03:13:57;4.00;;;1.70;;
7707;SDS011;3896;48.758;8.888;2024-01-27T03:16:23;1.60;;;1.47;;
7707;SDS011;3896;48.758;8.888;2024-01-27T03:18:48;4.97;;;2.10;;
7707;SDS011;3896;48.758;8.888;2024-01-27T03:21:14;3.87;;;2.83;;
7707;SDS011;3896;48.758;8.888;2024-01-27T03:23:39;4.20;;;1.83;;
7707;SDS011;3896;48.758;8.888;2024-01-27T03:26:05;3.13;;;1.40;;
7707;SDS011;3896;48.758;8.888;2024-01-27T03:28:30;3.00;;;2.17;;
7707;SDS011;3896;48.758;8.888;2024-01-27T03:30:56;4.53;;;1.77;;
7707;SDS011;3896;48.758;8.888;2024-01-27T03:33:21;2.40;;;1.60;;
7707;SDS011;3896;48.758;8.888;2024-01-27T03:35:48;4.13;;;1.90;;
7707;SDS011;3896;48.758;8.888;2024-01-27T03:38:13;3.40;;;2.07;;
7707;SDS011;3896;48.758;8.888;2024-01-27T03:40:39;4.90;;;1.60;;
7707;SDS011;3896;48.758;8.888;2024-01-27T03:43:04;2.10;;;2.00;;
7707;SDS011;3896;48.758;8.888;2024-01-27T03:45:30;4.47;;;1.80;;
7707;SDS011;3896;48.758;8.888;2024-01-27T03:47:56;3.43;;;2.00;;
7707;SDS011;3896;48.758;8.888;2024-01-27T03:50:22;5.60;;;1.80;;
7707;SDS011;3896;48.758;8.888;2024-01-27T03:52:47;2.70;;;1.80;;
7707;SDS011;3896;48.758;8.888;2024-01-27T03:55:13;7.20;;;1.90;;
7707;SDS011;3896;48.758;8.888;2024-01-27T03:57:39;3.10;;;1.80;;
7707;SDS011;3896;48.758;8.888;2024-01-27T04:00:04;1.87;;;1.53;;
7707;SDS011;3896;48.758;8.888;2024-01-27T04:02:30;3.50;;;1.67;;
7707;SDS011;3896;48.758;8.888;2024-01-27T04:04:56;2.83;;;1.60;;
7707;SDS011;3896;48.758;8.888;2024-01-27T04:07:21;1.73;;;1.63;;
7707;SDS011;3896;48.758;8.888;2024-01-27T04:09:47;4.30;;;1.80;;
7707;SDS011;3896;48.758;8.888;2024-01-27T04:12:12;3.43;;;2.10;;
7707;SDS011;3896;48.758;8.888;2024-01-27T04:14:38;1.87;;;1.50;;
7707;SDS011;3896;48.758;8.888;2024-01-27T04:17:03;7.57;;;2.00;;
7707;SDS011;3896;48.758;8.888;2024-01-27T04:19:29;3.70;;;2.20;;
7707;SDS011;3896;48.758;8.888;2024-01-27T04:21:55;4.30;;;1.60;;
7707;SDS011;3896;48.758;8.888;2024-01-27T04:24:20;11.57;;;1.83;;
7707;SDS011;3896;48.758;8.888;2024-01-27T04:26:46;2.47;;;1.93;;
7707;SDS011;3896;48.758;8.888;2024-01-27T04:29:11;7.43;;;2.00;;
7707;SDS011;3896;48.758;8.888;2024-01-27T04:31:40;3.17;;;2.03;;
7707;SDS011;3896;48.758;8.888;2024-01-27T04:34:06;2.17;;;1.97;;
7707;SDS011;3896;48.758;8.888;2024-01-27T04:36:32;1.33;;;1.23;;
7707;SDS011;3896;48.758;8.888;2024-01-27T04:38:57;1.80;;;1.70;;
7707;SDS011;3896;48.758;8.888;2024-01-27T04:41:23;3.93;;;1.77;;
7707;SDS011;3896;48.758;8.888;2024-01-27T04:43:49;1.63;;;1.43;;
7707;SDS011;3896;48.758;8.888;2024-01-27T04:46:15;3.37;;;1.90;;
7707;SDS011;3896;48.758;8.888;2024-01-27T04:48:40;2.63;;;1.63;;
7707;SDS011;3896;48.758;8.888;2024-01-27T04:51:06;2.23;;;2.10;;
7707;SDS011;3896;48.758;8.888;2024-01-27T04:53:31;3.43;;;1.70;;
7707;SDS011;3896;48.758;8.888;2024-01-27T04:55:57;2.50;;;1.60;;
7707;SDS011;3896;48.758;8.888;2024-01-27T04:58:23;2.20;;;1.50;;
7707;SDS011;3896;48.758;8.888;2024-01-27T05:00:48;2.80;;;1.70;;
7707;SDS011;3896;48.758;8.888;2024-01-27T05:03:14;2.80;;;1.67;;
7707;SDS011;3896;48.758;8.888;2024-01-27T05:05:43;2.17;;;1.67;;
7707;SDS011;3896;48.758;8.888;2024-01-27T05:08:09;6.97;;;2.03;;
7707;SDS011;3896;48.758;8.888;2024-01-27T05:10:34;1.90;;;1.57;;
7707;SDS011;3896;48.758;8.888;2024-01-27T05:13:01;6.47;;;1.90;;
7707;SDS011;3896;48.758;8.888;2024-01-27T05:15:26;2.40;;;1.80;;
7707;SDS011;3896;48.758;8.888;2024-01-27T05:17:52;2.70;;;1.63;;
7707;SDS011;3896;48.758;8.888;2024-01-27T05:20:18;1.40;;;1.40;;
7707;SDS011;3896;48.758;8.888;2024-01-27T05:22:44;3.03;;;2.07;;
7707;SDS011;3896;48.758;8.888;2024-01-27T05:25:09;2.00;;;1.47;;
7707;SDS011;3896;48.758;8.888;2024-01-27T05:27:36;2.67;;;1.80;;
7707;SDS011;3896;48.758;8.888;2024-01-27T05:30:03;2.67;;;1.47;;
7707;SDS011;3896;48.758;8.888;2024-01-27T05:32:30;3.40;;;1.67;;
7707;SDS011;3896;48.758;8.888;2024-01-27T05:34:56;2.37;;;2.00;;
7707;SDS011;3896;48.758;8.888;2024-01-27T05:37:21;2.53;;;2.10;;
7707;SDS011;3896;48.758;8.888;2024-01-27T05:39:47;5.93;;;2.00;;
7707;SDS011;3896;48.758;8.888;2024-01-27T05:42:12;4.10;;;1.60;;
7707;SDS011;3896;48.758;8.888;2024-01-27T05:44:38;6.40;;;2.10;;
7707;SDS011;3896;48.758;8.888;2024-01-27T05:47:05;3.10;;;1.57;;
7707;SDS011;3896;48.758;8.888;2024-01-27T05:49:31;3.30;;;2.10;;
7707;SDS011;3896;48.758;8.888;2024-01-27T05:51:57;1.70;;;1.60;;
7707;SDS011;3896;48.758;8.888;2024-01-27T05:54:22;7.40;;;2.33;;
7707;SDS011;3896;48.758;8.888;2024-01-27T05:56:49;5.20;;;1.77;;
7707;SDS011;3896;48.758;8.888;2024-01-27T05:59:14;6.33;;;1.80;;
7707;SDS011;3896;48.758;8.888;2024-01-27T06:01:40;3.17;;;1.43;;
7707;SDS011;3896;48.758;8.888;2024-01-27T06:04:06;4.87;;;2.30;;
7707;SDS011;3896;48.758;8.888;2024-01-27T06:06:32;5.43;;;1.83;;
7707;SDS011;3896;48.758;8.888;2024-01-27T06:08:57;2.67;;;1.80;;
7707;SDS011;3896;48.758;8.888;2024-01-27T06:11:23;2.63;;;1.97;;
7707;SDS011;3896;48.758;8.888;2024-01-27T06:13:50;2.57;;;1.60;;
7707;SDS011;3896;48.758;8.888;2024-01-27T06:16:17;3.47;;;1.80;;
7707;SDS011;3896;48.758;8.888;2024-01-27T06:18:44;6.07;;;2.00;;
7707;SDS011;3896;48.758;8.888;2024-01-27T06:21:10;2.83;;;1.83;;
7707;SDS011;3896;48.758;8.888;2024-01-27T06:23:35;2.07;;;1.83;;
7707;SDS011;3896;48.758;8.888;2024-01-27T06:26:07;1.43;;;1.33;;
7707;SDS011;3896;48.758;8.888;2024-01-27T06:28:33;3.23;;;1.60;;
7707;SDS011;3896;48.758;8.888;2024-01-27T06:31:00;1.80;;;1.70;;
7707;SDS011;3896;48.758;8.888;2024-01-27T06:33:25;2.17;;;1.97;;
7707;SDS011;3896;48.758;8.888;2024-01-27T06:35:51;4.43;;;1.97;;
7707;SDS011;3896;48.758;8.888;2024-01-27T06:38:17;2.40;;;1.70;;
7707;SDS011;3896;48.758;8.888;2024-01-27T06:40:42;8.13;;;2.10;;
7707;SDS011;3896;48.758;8.888;2024-01-27T06:43:08;5.47;;;1.67;;
7707;SDS011;3896;48.758;8.888;2024-01-27T06:45:35;8.77;;;2.43;;
7707;SDS011;3896;48.758;8.888;2024-01-27T06:48:01;1.73;;;1.50;;
7707;SDS011;3896;48.758;8.888;2024-01-27T06:50:26;8.83;;;1.97;;
7707;SDS011;3896;48.758;8.888;2024-01-27T06:52:52;11.93;;;2.60;;
7707;SDS011;3896;48.758;8.888;2024-01-27T06:55:18;3.83;;;2.20;;
7707;SDS011;3896;48.758;8.888;2024-01-27T06:57:43;9.17;;;2.60;;
7707;SDS011;3896;48.758;8.888;2024-01-27T07:00:09;7.47;;;2.63;;
7707;SDS011;3896;48.758;8.888;2024-01-27T07:02:39;3.80;;;2.33;;
7707;SDS011;3896;48.758;8.888;2024-01-27T07:05:05;5.20;;;2.30;;
7707;SDS011;3896;48.758;8.888;2024-01-27T07:07:31;4.40;;;1.67;;
7707;SDS011;3896;48.758;8.888;2024-01-27T07:09:57;3.90;;;2.53;;
7707;SDS011;3896;48.758;8.888;2024-01-27T07:12:23;1.93;;;1.70;;
7707;SDS011;3896;48.758;8.888;2024-01-27T07:14:49;8.87;;;1.77;;
7707;SDS011;3896;48.758;8.888;2024-01-27T07:17:16;3.23;;;1.97;;
7707;SDS011;3896;48.758;8.888;2024-01-27T07:19:41;3.50;;;1.83;;
7707;SDS011;3896;48.758;8.888;2024-01-27T07:22:07;6.03;;;2.00;;
7707;SDS011;3896;48.758;8.888;2024-01-27T07:24:33;2.50;;;2.10;;
7707;SDS011;3896;48.758;8.888;2024-01-27T07:27:01;2.87;;;2.10;;
7707;SDS011;3896;48.758;8.888;2024-01-27T07:29:28;3.67;;;2.50;;
7707;SDS011;3896;48.758;8.888;2024-01-27T07:31:54;2.53;;;1.90;;
7707;SDS011;3896;48.758;8.888;2024-01-27T07:34:20;5.63;;;2.33;;
7707;SDS011;3896;48.758;8.888;2024-01-27T07:36:45;2.80;;;1.57;;
7707;SDS011;3896;48.758;8.888;2024-01-27T07:39:13;6.03;;;2.63;;
7707;SDS011;3896;48.758;8.888;2024-01-27T07:41:38;2.57;;;2.13;;
7707;SDS011;3896;48.758;8.888;2024-01-27T07:44:11;9.30;;;1.97;;
7707;SDS011;3896;48.758;8.888;2024-01-27T07:46:38;5.67;;;2.07;;
7707;SDS011;3896;48.758;8.888;2024-01-27T07:49:04;4.77;;;2.17;;
7707;SDS011;3896;48.758;8.888;2024-01-27T07:51:30;3.33;;;1.87;;
7707;SDS011;3896;48.758;8.888;2024-01-27T07:53:56;4.87;;;2.23;;
7707;SDS011;3896;48.758;8.888;2024-01-27T07:56:21;2.87;;;2.27;;
7707;SDS011;3896;48.758;8.888;2024-01-27T07:58:47;3.93;;;2.07;;
7707;SDS011;3896;48.758;8.888;2024-01-27T08:01:16;5.13;;;2.33;;
7707;SDS011;3896;48.758;8.888;2024-01-27T08:03:42;4.70;;;2.60;;
7707;SDS011;3896;48.758;8.888;2024-01-27T08:06:13;5.23;;;3.57;;
7707;SDS011;3896;48.758;8.888;2024-01-27T08:08:44;9.10;;;2.80;;
7707;SDS011;3896;48.758;8.888;2024-01-27T08:11:10;4.20;;;2.83;;
7707;SDS011;3896;48.758;8.888;2024-01-27T08:13:36;6.07;;;2.83;;
7707;SDS011;3896;48.758;8.888;2024-01-27T08:16:02;10.97;;;7.10;;
7707;SDS011;3896;48.758;8.888;2024-01-27T08:18:27;8.87;;;5.17;;
7707;SDS011;3896;48.758;8.888;2024-01-27T08:20:53;7.83;;;4.97;;
7707;SDS011;3896;48.758;8.888;2024-01-27T08:23:18;9.53;;;5.03;;
7707;SDS011;3896;48.758;8.888;2024-01-27T08:25:44;8.40;;;4.57;;
7707;SDS011;3896;48.758;8.888;2024-01-27T08:28:12;8.57;;;4.63;;
7707;SDS011;3896;48.758;8.888;2024-01-27T08:30:37;7.17;;;4.30;;
7707;SDS011;3896;48.758;8.888;2024-01-27T08:33:03;9.03;;;3.53;;
7707;SDS011;3896;48.758;8.888;2024-01-27T08:35:30;6.60;;;3.47;;
7707;SDS011;3896;48.758;8.888;2024-01-27T08:37:55;5.17;;;3.50;;
7707;SDS011;3896;48.758;8.888;2024-01-27T08:40:21;5.70;;;3.77;;
7707;SDS011;3896;48.758;8.888;2024-01-27T08:42:46;7.77;;;4.03;;
7707;SDS011;3896;48.758;8.888;2024-01-27T08:45:12;10.50;;;3.67;;
7707;SDS011;3896;48.758;8.888;2024-01-27T08:47:37;7.30;;;4.47;;
7707;SDS011;3896;48.758;8.888;2024-01-27T08:50:03;8.00;;;4.50;;
7707;SDS011;3896;48.758;8.888;2024-01-27T08:52:29;4.53;;;4.10;;
7707;SDS011;3896;48.758;8.888;2024-01-27T08:54:55;5.67;;;3.70;;
7707;SDS011;3896;48.758;8.888;2024-01-27T08:57:20;6.63;;;3.83;;
7707;SDS011;3896;48.758;8.888;2024-01-27T08:59:46;12.83;;;3.50;;
7707;SDS011;3896;48.758;8.888;2024-01-27T09:02:11;5.40;;;3.23;;
7707;SDS011;3896;48.758;8.888;2024-01-27T09:04:37;6.00;;;4.63;;
7707;SDS011;3896;48.758;8.888;2024-01-27T09:07:03;5.77;;;4.17;;
7707;SDS011;3896;48.758;8.888;2024-01-27T09:09:29;11.63;;;6.17;;
7707;SDS011;3896;48.758;8.888;2024-01-27T09:11:54;11.60;;;7.10;;
7707;SDS011;3896;48.758;8.888;2024-01-27T09:14:20;12.60;;;7.17;;
7707;SDS011;3896;48.758;8.888;2024-01-27T09:16:45;13.10;;;6.83;;
7707;SDS011;3896;48.758;8.888;2024-01-27T09:19:12;8.10;;;6.33;;
7707;SDS011;3896;48.758;8.888;2024-01-27T09:21:37;6.77;;;5.50;;
7707;SDS011;3896;48.758;8.888;2024-01-27T09:24:03;9.93;;;5.37;;
7707;SDS011;3896;48.758;8.888;2024-01-27T09:26:29;10.60;;;5.07;;
7707;SDS011;3896;48.758;8.888;2024-01-27T09:28:54;7.90;;;4.37;;
7707;SDS011;3896;48.758;8.888;2024-01-27T09:31:21;7.80;;;4.83;;
7707;SDS011;3896;48.758;8.888;2024-01-27T09:33:48;9.17;;;4.43;;
7707;SDS011;3896;48.758;8.888;2024-01-27T09:36:18;6.30;;;4.43;;
7707;SDS011;3896;48.758;8.888;2024-01-27T09:38:44;5.23;;;4.33;;
7707;SDS011;3896;48.758;8.888;2024-01-27T09:41:11;4.73;;;3.73;;
7707;SDS011;3896;48.758;8.888;2024-01-27T09:43:38;6.23;;;3.80;;
7707;SDS011;3896;48.758;8.888;2024-01-27T09:46:07;8.23;;;4.13;;
7707;SDS011;3896;48.758;8.888;2024-01-27T09:48:34;11.40;;;4.70;;
7707;SDS011;3896;48.758;8.888;2024-01-27T09:51:01;9.03;;;5.40;;
7707;SDS011;3896;48.758;8.888;2024-01-27T09:53:28;8.43;;;4.03;;
7707;SDS011;3896;48.758;8.888;2024-01-27T09:55:54;5.33;;;3.97;;
7707;SDS011;3896;48.758;8.888;2024-01-27T09:58:23;4.37;;;3.77;;
7707;SDS011;3896;48.758;8.888;2024-01-27T10:00:54;8.27;;;3.47;;
7707;SDS011;3896;48.758;8.888;2024-01-27T10:03:23;9.20;;;4.27;;
7707;SDS011;3896;48.758;8.888;2024-01-27T10:05:53;8.20;;;5.17;;
7707;SDS011;3896;48.758;8.888;2024-01-27T10:08:20;7.17;;;4.37;;
7707;SDS011;3896;48.758;8.888;2024-01-27T10:10:54;9.93;;;3.90;;
7707;SDS011;3896;48.758;8.888;2024-01-27T10:13:23;12.70;;;3.63;;
7707;SDS011;3896;48.758;8.888;2024-01-27T10:16:25;12.60;;;3.27;;
7707;SDS011;3896;48.758;8.888;2024-01-27T10:18:44;4.33;;;3.37;;
7707;SDS011;3896;48.758;8.888;2024-01-27T10:21:17;5.77;;;2.90;;
7707;SDS011;3896;48.758;8.888;2024-01-27T10:23:45;7.33;;;2.63;;
7707;SDS011;3896;48.758;8.888;2024-01-27T10:26:11;4.50;;;2.80;;
7707;SDS011;3896;48.758;8.888;2024-01-27T10:28:37;5.37;;;2.60;;
7707;SDS011;3896;48.758;8.888;2024-01-27T10:31:09;4.93;;;2.70;;
7707;SDS011;3896;48.758;8.888;2024-01-27T10:33:38;5.87;;;2.57;;
7707;SDS011;3896;48.758;8.888;2024-01-27T10:36:04;4.03;;;2.40;;
7707;SDS011;3896;48.758;8.888;2024-01-27T10:38:34;3.57;;;2.33;;
7707;SDS011;3896;48.758;8.888;2024-01-27T10:41:00;5.03;;;3.50;;
7707;SDS011;3896;48.758;8.888;2024-01-27T10:43:28;8.73;;;3.43;;
7707;SDS011;3896;48.758;8.888;2024-01-27T10:45:55;3.73;;;2.70;;
7707;SDS011;3896;48.758;8.888;2024-01-27T10:48:21;3.30;;;2.90;;
7707;SDS011;3896;48.758;8.888;2024-01-27T10:50:50;5.83;;;2.87;;
7707;SDS011;3896;48.758;8.888;2024-01-27T10:53:21;4.17;;;3.53;;
7707;SDS011;3896;48.758;8.888;2024-01-27T10:55:55;4.37;;;2.60;;
7707;SDS011;3896;48.758;8.888;2024-01-27T10:58:23;9.37;;;3.30;;
7707;SDS011;3896;48.758;8.888;2024-01-27T11:00:51;3.53;;;2.87;;
7707;SDS011;3896;48.758;8.888;2024-01-27T11:03:18;8.63;;;2.97;;
7707;SDS011;3896;48.758;8.888;2024-01-27T11:05:46;5.83;;;3.57;;
7707;SDS011;3896;48.758;8.888;2024-01-27T11:08:12;7.63;;;3.10;;
7707;SDS011;3896;48.758;8.888;2024-01-27T11:10:39;4.10;;;2.67;;
7707;SDS011;3896;48.758;8.888;2024-01-27T11:13:05;6.13;;;3.10;;
7707;SDS011;3896;48.758;8.888;2024-01-27T11:15:32;7.93;;;3.10;;
7707;SDS011;3896;48.758;8.888;2024-01-27T11:17:58;5.07;;;3.43;;
7707;SDS011;3896;48.758;8.888;2024-01-27T11:20:32;4.17;;;2.63;;
7707;SDS011;3896;48.758;8.888;2024-01-27T11:23:11;3.93;;;2.90;;
7707;SDS011;3896;48.758;8.888;2024-01-27T11:25:39;4.97;;;3.37;;
7707;SDS011;3896;48.758;8.888;2024-01-27T11:28:12;3.53;;;2.80;;
7707;SDS011;3896;48.758;8.888;2024-01-27T11:30:39;6.43;;;2.30;;
7707;SDS011;3896;48.758;8.888;2024-01-27T11:33:10;6.73;;;3.43;;
7707;SDS011;3896;48.758;8.888;2024-01-27T11:35:37;7.07;;;3.07;;
7707;SDS011;3896;48.758;8.888;2024-01-27T11:38:05;9.23;;;3.90;;
7707;SDS011;3896;48.758;8.888;2024-01-27T11:40:31;7.07;;;3.47;;
7707;SDS011;3896;48.758;8.888;2024-01-27T11:42:58;4.27;;;3.00;;
7707;SDS011;3896;48.758;8.888;2024-01-27T11:45:26;10.73;;;3.70;;
7707;SDS011;3896;48.758;8.888;2024-01-27T11:47:56;7.07;;;2.40;;
7707;SDS011;3896;48.758;8.888;2024-01-27T11:50:21;6.77;;;2.63;;
7707;SDS011;3896;48.758;8.888;2024-01-27T11:52:47;5.57;;;3.23;;
7707;SDS011;3896;48.758;8.888;2024-01-27T11:55:13;3.83;;;2.57;;
7707;SDS011;3896;48.758;8.888;2024-01-27T11:57:40;5.37;;;2.47;;
7707;SDS011;3896;48.758;8.888;2024-01-27T12:00:06;4.73;;;2.47;;
7707;SDS011;3896;48.758;8.888;2024-01-27T12:02:36;3.73;;;2.80;;
7707;SDS011;3896;48.758;8.888;2024-01-27T12:05:03;5.00;;;2.77;;
7707;SDS011;3896;48.758;8.888;2024-01-27T12:07:33;4.50;;;2.80;;
7707;SDS011;3896;48.758;8.888;2024-01-27T12:09:58;4.43;;;2.80;;
7707;SDS011;3896;48.758;8.888;2024-01-27T12:12:24;7.00;;;2.43;;
7707;SDS011;3896;48.758;8.888;2024-01-27T12:14:50;3.07;;;2.00;;
7707;SDS011;3896;48.758;8.888;2024-01-27T12:17:16;4.07;;;2.77;;
7707;SDS011;3896;48.758;8.888;2024-01-27T12:19:46;5.37;;;2.70;;
7707;SDS011;3896;48.758;8.888;2024-01-27T12:22:20;6.47;;;2.57;;
7707;SDS011;3896;48.758;8.888;2024-01-27T12:24:47;6.83;;;2.00;;
7707;SDS011;3896;48.758;8.888;2024-01-27T12:27:13;4.07;;;2.23;;
7707;SDS011;3896;48.758;8.888;2024-01-27T12:29:40;5.10;;;2.40;;
7707;SDS011;3896;48.758;8.888;2024-01-27T12:32:06;3.33;;;2.07;;
7707;SDS011;3896;48.758;8.888;2024-01-27T12:34:32;3.23;;;2.80;;
7707;SDS011;3896;48.758;8.888;2024-01-27T12:36:58;6.30;;;2.60;;
7707;SDS011;3896;48.758;8.888;2024-01-27T12:39:25;4.87;;;2.47;;
7707;SDS011;3896;48.758;8.888;2024-01-27T12:41:51;3.93;;;2.23;;
7707;SDS011;3896;48.758;8.888;2024-01-27T12:44:16;2.20;;;2.00;;
7707;SDS011;3896;48.758;8.888;2024-01-27T12:46:42;2.50;;;1.97;;
7707;SDS011;3896;48.758;8.888;2024-01-27T12:49:08;2.20;;;1.90;;
7707;SDS011;3896;48.758;8.888;2024-01-27T12:51:33;2.53;;;2.27;;
7707;SDS011;3896;48.758;8.888;2024-01-27T12:53:59;7.97;;;2.70;;
7707;SDS011;3896;48.758;8.888;2024-01-27T12:56:24;4.47;;;3.27;;
7707;SDS011;3896;48.758;8.888;2024-01-27T12:58:50;4.70;;;2.40;;
7707;SDS011;3896;48.758;8.888;2024-01-27T13:01:16;4.57;;;2.13;;
7707;SDS011;3896;48.758;8.888;2024-01-27T13:03:41;4.33;;;2.33;;
7707;SDS011;3896;48.758;8.888;2024-01-27T13:06:07;2.13;;;1.93;;
7707;SDS011;3896;48.758;8.888;2024-01-27T13:08:33;4.47;;;1.90;;
7707;SDS011;3896;48.758;8.888;2024-01-27T13:10:58;5.07;;;2.10;;
7707;SDS011;3896;48.758;8.888;2024-01-27T13:13:24;4.47;;;2.30;;
7707;SDS011;3896;48.758;8.888;2024-01-27T13:15:49;2.53;;;2.00;;
7707;SDS011;3896;48.758;8.888;2024-01-27T13:18:15;2.70;;;1.80;;
7707;SDS011;3896;48.758;8.888;2024-01-27T13:20:40;4.37;;;2.60;;
7707;SDS011;3896;48.758;8.888;2024-01-27T13:23:06;4.20;;;1.77;;
7707;SDS011;3896;48.758;8.888;2024-01-27T13:25:32;3.67;;;1.77;;
7707;SDS011;3896;48.758;8.888;2024-01-27T13:27:58;2.83;;;2.53;;
7707;SDS011;3896;48.758;8.888;2024-01-27T13:30:23;3.67;;;2.20;;
7707;SDS011;3896;48.758;8.888;2024-01-27T13:32:50;3.87;;;1.40;;
7707;SDS011;3896;48.758;8.888;2024-01-27T13:35:15;1.77;;;1.63;;
7707;SDS011;3896;48.758;8.888;2024-01-27T13:37:41;4.07;;;1.63;;
7707;SDS011;3896;48.758;8.888;2024-01-27T13:40:07;2.67;;;1.80;;
7707;SDS011;3896;48.758;8.888;2024-01-27T13:42:35;6.07;;;1.70;;
7707;SDS011;3896;48.758;8.888;2024-01-27T13:45:01;6.07;;;2.87;;
7707;SDS011;3896;48.758;8.888;2024-01-27T13:47:26;4.03;;;1.73;;
7707;SDS011;3896;48.758;8.888;2024-01-27T13:49:53;3.23;;;1.70;;
7707;SDS011;3896;48.758;8.888;2024-01-27T13:52:18;1.60;;;1.17;;
7707;SDS011;3896;48.758;8.888;2024-01-27T13:54:44;4.20;;;1.57;;
7707;SDS011;3896;48.758;8.888;2024-01-27T13:57:09;3.20;;;1.03;;
7707;SDS011;3896;48.758;8.888;2024-01-27T13:59:35;5.07;;;1.43;;
7707;SDS011;3896;48.758;8.888;2024-01-27T14:02:01;7.03;;;1.70;;
7707;SDS011;3896;48.758;8.888;2024-01-27T14:04:27;2.20;;;1.50;;
7707;SDS011;3896;48.758;8.888;2024-01-27T14:06:53;3.97;;;1.50;;
7707;SDS011;3896;48.758;8.888;2024-01-27T14:09:20;2.47;;;1.60;;
7707;SDS011;3896;48.758;8.888;2024-01-27T14:11:46;2.17;;;1.40;;
7707;SDS011;3896;48.758;8.888;2024-01-27T14:14:11;3.03;;;1.50;;
7707;SDS011;3896;48.758;8.888;2024-01-27T14:16:37;5.20;;;1.20;;
7707;SDS011;3896;48.758;8.888;2024-01-27T14:19:02;3.33;;;2.03;;
7707;SDS011;3896;48.758;8.888;2024-01-27T14:21:28;2.87;;;1.63;;
7707;SDS011;3896;48.758;8.888;2024-01-27T14:23:54;4.20;;;1.90;;
7707;SDS011;3896;48.758;8.888;2024-01-27T14:26:27;5.50;;;1.57;;
7707;SDS011;3896;48.758;8.888;2024-01-27T14:28:53;3.20;;;1.47;;
7707;SDS011;3896;48.758;8.888;2024-01-27T14:31:19;2.33;;;1.47;;
7707;SDS011;3896;48.758;8.888;2024-01-27T14:33:45;4.50;;;2.07;;
7707;SDS011;3896;48.758;8.888;2024-01-27T14:36:11;3.43;;;1.90;;
7707;SDS011;3896;48.758;8.888;2024-01-27T14:38:36;3.83;;;1.53;;
7707;SDS011;3896;48.758;8.888;2024-01-27T14:41:03;5.33;;;2.10;;
7707;SDS011;3896;48.758;8.888;2024-01-27T14:43:30;1.43;;;1.30;;
7707;SDS011;3896;48.758;8.888;2024-01-27T14:45:55;3.27;;;1.97;;
7707;SDS011;3896;48.758;8.888;2024-01-27T14:48:21;3.03;;;1.70;;
7707;SDS011;3896;48.758;8.888;2024-01-27T14:50:46;3.97;;;1.40;;
7707;SDS011;3896;48.758;8.888;2024-01-27T14:53:22;5.60;;;1.60;;
7707;SDS011;3896;48.758;8.888;2024-01-27T14:55:47;5.40;;;1.80;;
7707;SDS011;3896;48.758;8.888;2024-01-27T14:58:13;3.50;;;1.63;;
7707;SDS011;3896;48.758;8.888;2024-01-27T15:00:39;3.30;;;1.80;;
7707;SDS011;3896;48.758;8.888;2024-01-27T15:03:05;2.87;;;1.43;;
7707;SDS011;3896;48.758;8.888;2024-01-27T15:05:31;3.73;;;1.40;;
7707;SDS011;3896;48.758;8.888;2024-01-27T15:08:01;2.13;;;1.73;;
7707;SDS011;3896;48.758;8.888;2024-01-27T15:10:27;5.10;;;1.77;;
7707;SDS011;3896;48.758;8.888;2024-01-27T15:12:53;6.97;;;2.20;;
7707;SDS011;3896;48.758;8.888;2024-01-27T15:15:19;4.07;;;1.83;;
7707;SDS011;3896;48.758;8.888;2024-01-27T15:17:44;1.73;;;1.20;;
7707;SDS011;3896;48.758;8.888;2024-01-27T15:20:10;7.07;;;1.83;;
7707;SDS011;3896;48.758;8.888;2024-01-27T15:22:37;4.07;;;1.57;;
7707;SDS011;3896;48.758;8.888;2024-01-27T15:25:02;2.87;;;1.60;;